createdAt,value
2019-05-12T00:00:10.606Z,95.08
2019-05-12T00:01:10.529Z,95.84
2019-05-12T00:02:10.482Z,95.75
2019-05-12T00:03:10.414Z,95.55
2019-05-12T00:04:10.368Z,95.94
2019-05-12T00:05:10.344Z,95.75
2019-05-12T00:06:10.252Z,96.03
2019-05-12T00:07:10.195Z,95.55
2019-05-12T00:08:10.174Z,96.03
2019-05-12T00:09:10.097Z,95.75
2019-05-12T00:10:10.061Z,95.94
2019-05-12T00:11:09.993Z,95.84
2019-05-12T00:12:09.927Z,96.22
2019-05-12T00:13:09.873Z,95.75
2019-05-12T00:14:09.825Z,95.46
2019-05-12T00:15:09.785Z,95.84
2019-05-12T00:16:09.710Z,95.17
2019-05-12T00:17:09.650Z,95.17
2019-05-12T00:18:09.603Z,94.89
2019-05-12T00:19:09.540Z,94.79
2019-05-12T00:20:09.507Z,95.94
2019-05-12T00:21:09.437Z,95.27
2019-05-12T00:22:09.377Z,95.36
2019-05-12T00:23:23.805Z,95.36
2019-05-12T00:24:09.267Z,94.79
2019-05-12T00:25:09.247Z,95.27
2019-05-12T00:26:09.164Z,95.65
2019-05-12T00:27:09.109Z,94.93
2019-05-12T00:28:09.048Z,95.12
2019-05-12T00:29:09.004Z,95.94
2019-05-12T00:30:09.894Z,95.89
2019-05-12T00:31:08.884Z,95.89
2019-05-12T00:32:08.832Z,95.89
2019-05-12T00:33:09.545Z,95.60
2019-05-12T00:34:08.729Z,95.79
2019-05-12T00:35:08.707Z,95.70
2019-05-12T00:36:08.618Z,95.98
2019-05-12T00:37:08.555Z,95.98
2019-05-12T00:38:09.223Z,95.89
2019-05-12T00:39:08.826Z,95.60
2019-05-12T00:40:08.983Z,95.70
2019-05-12T00:41:08.740Z,96.26
2019-05-12T00:42:08.289Z,95.79
2019-05-12T00:43:08.856Z,96.26
2019-05-12T00:44:08.799Z,95.51
2019-05-12T00:45:08.331Z,95.51
2019-05-12T00:46:08.065Z,95.70
2019-05-12T00:47:08.226Z,95.79
2019-05-12T00:48:09.184Z,95.89
2019-05-12T00:49:08.232Z,96.26
2019-05-12T00:50:08.297Z,96.08
2019-05-12T00:51:07.880Z,96.08
2019-05-12T00:52:08.064Z,96.36
2019-05-12T00:53:09.139Z,95.60
2019-05-12T00:54:09.251Z,95.31
2019-05-12T00:55:08.070Z,96.08
2019-05-12T00:56:08.506Z,96.08
2019-05-12T00:57:07.848Z,96.64
2019-05-12T00:58:08.235Z,95.89
2019-05-12T00:59:08.390Z,95.79
2019-05-12T01:00:09.150Z,96.83
2019-05-12T01:01:08.126Z,96.26
2019-05-12T01:02:07.998Z,96.45
2019-05-12T01:03:08.669Z,96.45
2019-05-12T01:04:08.768Z,96.45
2019-05-12T01:05:08.579Z,95.98
2019-05-12T01:06:08.358Z,96.08
2019-05-12T01:07:08.679Z,96.36
2019-05-12T01:08:08.919Z,95.70
2019-05-12T01:09:08.805Z,95.98
2019-05-12T01:10:08.631Z,95.70
2019-05-12T01:11:08.661Z,96.55
2019-05-12T01:12:07.962Z,95.89
2019-05-12T01:13:08.565Z,96.64
2019-05-12T01:14:08.582Z,95.98
2019-05-12T01:15:07.493Z,95.89
2019-05-12T01:16:08.119Z,96.59
2019-05-12T01:17:08.250Z,95.84
2019-05-12T01:18:08.916Z,96.59
2019-05-12T01:19:07.927Z,96.41
2019-05-12T01:20:08.693Z,96.59
2019-05-12T01:21:07.727Z,96.50
2019-05-12T01:22:08.098Z,96.55
2019-05-12T01:23:08.238Z,96.69
2019-05-12T01:24:08.331Z,95.93
2019-05-12T01:25:08.376Z,96.50
2019-05-12T01:26:08.667Z,96.59
2019-05-12T01:27:05.808Z,96.59
2019-05-12T01:28:07.943Z,96.78
2019-05-12T01:29:05.696Z,96.78
2019-05-12T01:30:05.651Z,96.69
2019-05-12T01:31:05.608Z,96.78
2019-05-12T01:32:07.734Z,97.17
2019-05-12T01:33:05.473Z,96.97
2019-05-12T01:34:07.950Z,96.97
2019-05-12T01:35:05.372Z,97.26
2019-05-12T01:36:07.816Z,96.97
2019-05-12T01:37:05.255Z,96.50
2019-05-12T01:38:07.761Z,96.69
2019-05-12T01:39:05.150Z,96.22
2019-05-12T01:40:05.105Z,96.22
2019-05-12T01:41:05.066Z,96.41
2019-05-12T01:42:04.982Z,95.93
2019-05-12T01:43:04.924Z,95.93
2019-05-12T01:44:04.864Z,96.41
2019-05-12T01:45:04.814Z,96.41
2019-05-12T01:46:04.802Z,96.22
2019-05-12T01:47:04.701Z,96.50
2019-05-12T01:48:04.675Z,96.03
2019-05-12T01:49:04.591Z,96.12
2019-05-12T01:50:04.536Z,96.55
2019-05-12T01:51:04.484Z,96.03
2019-05-12T01:52:04.455Z,96.17
2019-05-12T01:53:04.369Z,96.45
2019-05-12T01:54:11.830Z,96.36
2019-05-12T01:55:04.257Z,95.98
2019-05-12T01:56:04.207Z,95.98
2019-05-12T01:57:04.171Z,95.79
2019-05-12T01:58:04.100Z,96.17
2019-05-12T01:59:04.041Z,95.70
2019-05-12T02:00:03.985Z,95.89
2019-05-12T02:01:03.931Z,95.89
2019-05-12T02:02:03.905Z,95.70
2019-05-12T02:03:03.817Z,95.79
2019-05-12T02:04:03.765Z,95.60
2019-05-12T02:05:03.717Z,96.17
2019-05-12T02:06:03.654Z,96.17
2019-05-12T02:07:03.625Z,96.17
2019-05-12T02:08:03.538Z,96.08
2019-05-12T02:09:03.488Z,96.08
2019-05-12T02:10:03.435Z,95.51
2019-05-12T02:11:03.375Z,95.60
2019-05-12T02:12:03.350Z,95.60
2019-05-12T02:13:03.272Z,95.89
2019-05-12T02:14:03.216Z,95.60
2019-05-12T02:15:03.165Z,96.26
2019-05-12T02:16:03.107Z,95.22
2019-05-12T02:17:03.073Z,95.51
2019-05-12T02:18:02.988Z,96.17
2019-05-12T02:19:02.942Z,96.08
2019-05-12T02:20:02.885Z,96.08
2019-05-12T02:21:02.826Z,96.17
2019-05-12T02:22:02.795Z,95.79
2019-05-12T02:23:02.719Z,95.89
2019-05-12T02:24:02.661Z,95.89
2019-05-12T02:25:02.613Z,95.70
2019-05-12T02:26:02.554Z,96.17
2019-05-12T02:27:02.519Z,96.08
2019-05-12T02:28:02.449Z,96.17
2019-05-12T02:29:02.387Z,95.89
2019-05-12T02:30:02.332Z,96.26
2019-05-12T02:31:02.290Z,95.51
2019-05-12T02:32:02.262Z,96.08
2019-05-12T02:33:04.945Z,95.70
2019-05-12T02:34:05.470Z,96.08
2019-05-12T02:35:05.585Z,95.89
2019-05-12T02:36:04.673Z,95.70
2019-05-12T02:37:05.273Z,96.08
2019-05-12T02:38:04.704Z,95.70
2019-05-12T02:39:05.211Z,95.79
2019-05-12T02:40:04.799Z,95.89
2019-05-12T02:41:04.502Z,95.98
2019-05-12T02:42:04.930Z,95.98
2019-05-12T02:43:04.867Z,96.17
2019-05-12T02:44:05.003Z,95.89
2019-05-12T02:45:01.513Z,96.74
2019-05-12T02:46:04.542Z,96.08
2019-05-12T02:47:04.902Z,95.89
2019-05-12T02:48:01.363Z,96.45
2019-05-12T02:49:04.447Z,95.89
2019-05-12T02:50:01.225Z,96.26
2019-05-12T02:51:01.186Z,96.45
2019-05-12T02:52:01.122Z,96.55
2019-05-12T02:53:01.100Z,96.08
2019-05-12T02:54:01.007Z,96.36
2019-05-12T02:55:02.618Z,96.55
2019-05-12T02:56:00.900Z,96.41
2019-05-12T02:57:04.031Z,96.41
2019-05-12T02:58:00.814Z,96.31
2019-05-12T02:59:00.744Z,96.45
2019-05-12T03:00:00.677Z,96.08
2019-05-12T03:01:00.627Z,96.17
2019-05-12T03:02:00.563Z,96.55
2019-05-12T03:03:00.532Z,96.26
2019-05-12T03:04:00.457Z,95.79
2019-05-12T03:05:00.397Z,96.55
2019-05-12T03:06:00.341Z,95.89
2019-05-12T03:07:05.463Z,96.45
2019-05-12T03:08:00.254Z,96.45
2019-05-12T03:09:00.184Z,95.98
2019-05-12T03:10:00.129Z,95.89
2019-05-12T03:11:00.069Z,96.17
2019-05-12T03:12:00.011Z,95.98
2019-05-12T03:12:59.975Z,95.70
2019-05-12T03:13:59.902Z,95.79
2019-05-12T03:14:59.875Z,96.08
2019-05-12T03:15:59.789Z,95.60
2019-05-12T03:16:59.744Z,95.70
2019-05-12T03:17:59.682Z,95.70
2019-05-12T03:18:59.651Z,95.31
2019-05-12T03:19:59.572Z,96.17
2019-05-12T03:20:59.513Z,95.89
2019-05-12T03:21:59.454Z,95.70
2019-05-12T03:22:59.406Z,96.08
2019-05-12T03:23:59.372Z,96.08
2019-05-12T03:25:14.722Z,96.26
2019-05-12T03:25:59.240Z,95.51
2019-05-12T03:26:59.178Z,95.41
2019-05-12T03:27:59.127Z,96.17
2019-05-12T03:28:59.100Z,96.08
2019-05-12T03:29:59.018Z,95.89
2019-05-12T03:30:58.969Z,95.89
2019-05-12T03:31:58.904Z,95.22
2019-05-12T03:32:58.887Z,95.51
2019-05-12T03:34:00.400Z,96.08
2019-05-12T03:34:58.746Z,95.12
2019-05-12T03:36:00.668Z,95.98
2019-05-12T03:36:59.585Z,95.89
2019-05-12T03:37:58.572Z,95.98
2019-05-12T03:38:58.541Z,96.17
2019-05-12T03:39:58.466Z,95.60
2019-05-12T03:40:58.412Z,95.89
2019-05-12T03:41:58.348Z,95.51
2019-05-12T03:42:58.299Z,95.51
2019-05-12T03:43:58.271Z,96.08
2019-05-12T03:44:58.194Z,95.51
2019-05-12T03:45:58.134Z,96.08
2019-05-12T03:46:58.077Z,95.79
2019-05-12T03:47:58.025Z,95.70
2019-05-12T03:48:57.989Z,96.08
2019-05-12T03:49:57.912Z,95.98
2019-05-12T03:50:57.855Z,96.08
2019-05-12T03:51:57.801Z,95.89
2019-05-12T03:52:57.762Z,95.98
2019-05-12T03:53:57.718Z,96.45
2019-05-12T03:54:57.632Z,95.60
2019-05-12T03:55:57.576Z,95.70
2019-05-12T03:56:57.528Z,95.41
2019-05-12T03:57:57.476Z,95.31
2019-05-12T03:58:57.446Z,95.51
2019-05-12T03:59:57.368Z,95.89
2019-05-12T04:00:57.305Z,95.70
2019-05-12T04:01:57.257Z,96.08
2019-05-12T04:02:57.198Z,95.89
2019-05-12T04:03:57.164Z,95.98
2019-05-12T04:04:57.086Z,95.89
2019-05-12T04:05:57.028Z,95.79
2019-05-12T04:06:56.973Z,95.60
2019-05-12T04:07:56.920Z,95.51
2019-05-12T04:08:59.906Z,95.60
2019-05-12T04:09:56.805Z,95.70
2019-05-12T04:10:56.746Z,95.51
2019-05-12T04:11:56.697Z,95.70
2019-05-12T04:12:56.647Z,95.70
2019-05-12T04:13:56.612Z,95.31
2019-05-12T04:14:56.532Z,95.98
2019-05-12T04:15:56.473Z,95.98
2019-05-12T04:16:56.427Z,95.98
2019-05-12T04:17:56.370Z,95.41
2019-05-12T04:18:56.334Z,95.60
2019-05-12T04:19:56.257Z,95.12
2019-05-12T04:20:56.206Z,95.31
2019-05-12T04:21:56.150Z,95.98
2019-05-12T04:22:56.093Z,95.22
2019-05-12T04:23:56.062Z,95.51
2019-05-12T04:24:55.973Z,95.89
2019-05-12T04:26:07.381Z,95.79
2019-05-12T04:26:55.876Z,95.51
2019-05-12T04:27:55.831Z,95.79
2019-05-12T04:28:55.796Z,96.36
2019-05-12T04:29:55.705Z,96.17
2019-05-12T04:30:55.651Z,96.36
2019-05-12T04:31:55.597Z,96.17
2019-05-12T04:32:55.540Z,95.51
2019-05-12T04:33:55.503Z,96.08
2019-05-12T04:34:55.437Z,95.89
2019-05-12T04:35:55.612Z,96.26
2019-05-12T04:36:55.639Z,96.36
2019-05-12T04:37:55.593Z,95.55
2019-05-12T04:38:55.870Z,96.03
2019-05-12T04:39:55.497Z,96.03
2019-05-12T04:40:55.433Z,95.84
2019-05-12T04:41:55.317Z,95.27
2019-05-12T04:42:55.096Z,95.65
2019-05-12T04:43:55.175Z,95.93
2019-05-12T04:44:55.312Z,95.55
2019-05-12T04:45:54.973Z,96.12
2019-05-12T04:46:55.551Z,95.93
2019-05-12T04:47:55.325Z,95.65
2019-05-12T04:48:54.808Z,95.84
2019-05-12T04:49:54.811Z,96.50
2019-05-12T04:50:54.950Z,96.12
2019-05-12T04:51:54.698Z,96.59
2019-05-12T04:52:54.957Z,96.31
2019-05-12T04:53:55.006Z,97.07
2019-05-12T04:54:55.234Z,96.41
2019-05-12T04:56:07.378Z,96.50
2019-05-12T04:56:55.123Z,96.22
2019-05-12T04:57:54.668Z,95.84
2019-05-12T04:58:54.723Z,95.70
2019-05-12T04:59:54.431Z,95.51
2019-05-12T05:00:54.155Z,96.36
2019-05-12T05:01:54.157Z,95.60
2019-05-12T05:02:54.529Z,95.60
2019-05-12T05:03:54.555Z,95.41
2019-05-12T05:04:54.703Z,95.03
2019-05-12T05:05:54.892Z,94.84
2019-05-12T05:06:55.062Z,94.74
2019-05-12T05:07:54.812Z,94.65
2019-05-12T05:08:54.495Z,93.99
2019-05-12T05:09:54.940Z,93.94
2019-05-12T05:10:54.828Z,93.84
2019-05-12T05:11:54.342Z,93.94
2019-05-12T05:12:54.026Z,93.75
2019-05-12T05:13:54.822Z,93.46
2019-05-12T05:14:54.885Z,93.56
2019-05-12T05:15:54.875Z,93.18
2019-05-12T05:16:54.244Z,93.37
2019-05-12T05:17:54.524Z,93.27
2019-05-12T05:18:54.286Z,93.08
2019-05-12T05:19:53.491Z,92.51
2019-05-12T05:20:54.192Z,92.80
2019-05-12T05:21:54.184Z,92.99
2019-05-12T05:22:54.192Z,93.08
2019-05-12T05:23:53.695Z,92.61
2019-05-12T05:24:53.615Z,92.80
2019-05-12T05:25:53.870Z,92.32
2019-05-12T05:26:53.964Z,92.32
2019-05-12T05:27:53.317Z,93.04
2019-05-12T05:28:54.251Z,92.46
2019-05-12T05:29:54.366Z,92.08
2019-05-12T05:30:53.467Z,91.80
2019-05-12T05:31:53.436Z,91.80
2019-05-12T05:32:53.561Z,91.89
2019-05-12T05:33:53.649Z,91.80
2019-05-12T05:34:55.940Z,91.33
2019-05-12T05:35:54.152Z,91.52
2019-05-12T05:36:59.460Z,91.13
2019-05-12T05:37:53.875Z,91.33
2019-05-12T05:38:57.339Z,91.33
2019-05-12T05:39:53.915Z,92.46
2019-05-12T05:40:53.985Z,92.23
2019-05-12T05:41:53.679Z,92.51
2019-05-12T05:42:54.133Z,92.51
2019-05-12T05:43:54.263Z,92.61
2019-05-12T05:44:54.176Z,92.99
2019-05-12T05:45:54.534Z,92.71
2019-05-12T05:46:54.507Z,93.08
2019-05-12T05:47:51.449Z,93.08
2019-05-12T05:48:51.382Z,92.80
2019-05-12T05:49:51.336Z,92.99
2019-05-12T05:50:51.305Z,93.27
2019-05-12T05:51:55.111Z,91.99
2019-05-12T05:52:51.166Z,91.71
2019-05-12T05:53:51.940Z,92.08
2019-05-12T05:54:53.134Z,91.33
2019-05-12T05:55:56.278Z,90.52
2019-05-12T05:56:59.626Z,90.89
2019-05-12T05:57:50.904Z,90.14
2019-05-12T05:58:52.453Z,90.23
2019-05-12T05:59:50.795Z,90.14
2019-05-12T06:00:54.721Z,89.75
2019-05-12T06:01:52.529Z,89.70
2019-05-12T06:02:50.633Z,88.61
2019-05-12T06:03:50.581Z,89.14
2019-05-12T06:04:54.094Z,89.14
2019-05-12T06:05:50.500Z,89.04
2019-05-12T06:06:52.799Z,88.46
2019-05-12T06:07:50.366Z,88.18
2019-05-12T06:08:50.317Z,87.42
2019-05-12T06:09:50.257Z,88.04
2019-05-12T06:10:50.229Z,87.90
2019-05-12T06:11:50.151Z,87.56
2019-05-12T06:12:50.879Z,87.37
2019-05-12T06:13:50.054Z,86.90
2019-05-12T06:14:55.218Z,87.27
2019-05-12T06:15:49.976Z,86.99
2019-05-12T06:16:49.895Z,88.09
2019-05-12T06:17:49.836Z,87.80
2019-05-12T06:18:49.787Z,88.75
2019-05-12T06:19:49.737Z,89.89
2019-05-12T06:20:49.712Z,89.56
2019-05-12T06:21:49.624Z,89.66
2019-05-12T06:22:54.417Z,90.33
2019-05-12T06:23:49.521Z,89.51
2019-05-12T06:24:56.854Z,90.47
2019-05-12T06:25:51.516Z,89.80
2019-05-12T06:26:57.747Z,90.28
2019-05-12T06:27:51.050Z,89.51
2019-05-12T06:28:49.260Z,89.70
2019-05-12T06:29:52.501Z,88.18
2019-05-12T06:30:50.191Z,88.94
2019-05-12T06:31:49.116Z,88.46
2019-05-12T06:32:51.731Z,88.66
2019-05-12T06:33:48.993Z,87.37
2019-05-12T06:34:51.005Z,87.56
2019-05-12T06:35:48.885Z,87.75
2019-05-12T06:36:48.855Z,87.56
2019-05-12T06:37:57.103Z,87.85
2019-05-12T06:38:48.741Z,88.32
2019-05-12T06:39:50.926Z,88.04
2019-05-12T06:40:48.623Z,88.51
2019-05-12T06:41:48.596Z,87.46
2019-05-12T06:42:53.214Z,87.37
2019-05-12T06:43:48.463Z,87.08
2019-05-12T06:44:49.047Z,86.51
2019-05-12T06:45:48.356Z,86.22
2019-05-12T06:46:53.402Z,87.18
2019-05-12T06:47:49.738Z,86.80
2019-05-12T06:48:48.206Z,86.99
2019-05-12T06:49:48.729Z,87.18
2019-05-12T06:50:48.099Z,86.46
2019-05-12T06:51:48.064Z,86.13
2019-05-12T06:52:49.141Z,85.85
2019-05-12T06:53:47.938Z,86.55
2019-05-12T06:54:51.441Z,85.56
2019-05-12T06:55:47.830Z,86.61
2019-05-12T06:56:53.390Z,86.42
2019-05-12T06:57:50.136Z,86.51
2019-05-12T06:58:47.667Z,86.70
2019-05-12T06:59:51.454Z,86.36
2019-05-12T07:00:47.577Z,85.51
2019-05-12T07:01:49.879Z,85.60
2019-05-12T07:02:52.380Z,85.80
2019-05-12T07:03:47.412Z,85.60
2019-05-12T07:04:56.352Z,86.18
2019-05-12T07:05:47.313Z,85.60
2019-05-12T07:06:49.833Z,84.17
2019-05-12T07:07:47.205Z,84.75
2019-05-12T07:08:47.151Z,83.98
2019-05-12T07:09:54.150Z,84.79
2019-05-12T07:10:57.777Z,85.17
2019-05-12T07:11:53.338Z,84.12
2019-05-12T07:12:58.805Z,85.08
2019-05-12T07:13:46.892Z,85.03
2019-05-12T07:14:48.978Z,85.17
2019-05-12T07:15:46.820Z,84.60
2019-05-12T07:16:46.790Z,83.93
2019-05-12T07:17:49.798Z,84.03
2019-05-12T07:18:46.623Z,83.55
2019-05-12T07:19:46.577Z,83.45
2019-05-12T07:20:46.530Z,83.65
2019-05-12T07:21:50.721Z,82.50
2019-05-12T07:22:48.501Z,82.98
2019-05-12T07:23:46.375Z,83.17
2019-05-12T07:24:50.138Z,82.83
2019-05-12T07:25:46.271Z,82.60
2019-05-12T07:26:48.056Z,83.07
2019-05-12T07:27:54.995Z,83.36
2019-05-12T07:28:46.116Z,82.98
2019-05-12T07:29:48.255Z,82.64
2019-05-12T07:30:54.488Z,82.83
2019-05-12T07:31:45.961Z,83.40
2019-05-12T07:32:45.930Z,81.68
2019-05-12T07:33:46.162Z,80.77
2019-05-12T07:34:45.797Z,80.77
2019-05-12T07:35:45.746Z,80.68
2019-05-12T07:36:45.827Z,79.63
2019-05-12T07:37:45.670Z,80.16
2019-05-12T07:38:45.595Z,78.64
2019-05-12T07:39:49.425Z,79.40
2019-05-12T07:40:45.489Z,79.30
2019-05-12T07:41:50.775Z,79.30
2019-05-12T07:42:45.430Z,79.78
2019-05-12T07:43:45.334Z,79.30
2019-05-12T07:44:45.284Z,79.21
2019-05-12T07:45:45.237Z,78.92
2019-05-12T07:46:49.374Z,78.92
2019-05-12T07:47:45.153Z,78.77
2019-05-12T07:48:49.050Z,79.63
2019-05-12T07:49:45.028Z,78.96
2019-05-12T07:50:44.978Z,78.05
2019-05-12T07:51:44.927Z,77.76
2019-05-12T07:52:44.926Z,76.81
2019-05-12T07:53:46.888Z,76.62
2019-05-12T07:54:44.771Z,76.77
2019-05-12T07:55:49.185Z,78.39
2019-05-12T07:56:44.664Z,77.53
2019-05-12T07:57:52.902Z,77.78
2019-05-12T07:58:47.493Z,79.30
2019-05-12T07:59:44.513Z,80.07
2019-05-12T08:00:44.507Z,79.11
2019-05-12T08:01:50.748Z,77.97
2019-05-12T08:02:44.563Z,79.59
2019-05-12T08:03:44.341Z,77.69
2019-05-12T08:04:44.280Z,77.69
2019-05-12T08:05:44.204Z,78.03
2019-05-12T08:06:46.633Z,79.17
2019-05-12T08:07:44.591Z,78.88
2019-05-12T08:08:50.295Z,79.27
2019-05-12T08:09:43.995Z,79.64
2019-05-12T08:10:44.375Z,79.64
2019-05-12T08:11:43.924Z,80.12
2019-05-12T08:12:44.444Z,81.68
2019-05-12T08:13:44.023Z,81.07
2019-05-12T08:14:44.006Z,79.93
2019-05-12T08:15:45.789Z,79.07
2019-05-12T08:16:43.785Z,78.98
2019-05-12T08:17:44.217Z,79.27
2019-05-12T08:18:44.402Z,79.74
2019-05-12T08:19:44.368Z,78.73
2019-05-12T08:20:43.700Z,78.54
2019-05-12T08:21:48.529Z,78.44
2019-05-12T08:22:43.817Z,76.92
2019-05-12T08:23:44.505Z,76.64
2019-05-12T08:24:47.571Z,75.59
2019-05-12T08:25:43.777Z,74.82
2019-05-12T08:26:43.529Z,74.10
2019-05-12T08:27:45.378Z,73.91
2019-05-12T08:28:44.230Z,74.67
2019-05-12T08:29:43.395Z,74.01
2019-05-12T08:30:49.818Z,73.72
2019-05-12T08:31:44.065Z,74.13
2019-05-12T08:32:44.250Z,74.80
2019-05-12T08:33:43.654Z,75.09
2019-05-12T08:34:43.742Z,76.23
2019-05-12T08:35:43.799Z,75.85
2019-05-12T08:36:45.043Z,75.09
2019-05-12T08:37:44.168Z,74.86
2019-05-12T08:38:44.440Z,76.01
2019-05-12T08:39:44.314Z,78.01
2019-05-12T08:40:48.842Z,77.82
2019-05-12T08:41:44.426Z,78.81
2019-05-12T08:42:43.575Z,78.58
2019-05-12T08:43:47.130Z,77.91
2019-05-12T08:44:43.994Z,77.82
2019-05-12T08:45:44.330Z,77.72
2019-05-12T08:46:43.245Z,77.30
2019-05-12T08:47:44.078Z,78.73
2019-05-12T08:48:44.375Z,79.06
2019-05-12T08:49:53.419Z,78.73
2019-05-12T08:50:45.298Z,79.49
2019-05-12T08:51:44.135Z,78.92
2019-05-12T08:52:44.163Z,77.97
2019-05-12T08:53:43.827Z,78.92
2019-05-12T08:54:45.482Z,79.06
2019-05-12T08:55:43.570Z,78.67
2019-05-12T08:56:43.589Z,78.30
2019-05-12T08:57:49.222Z,78.30
2019-05-12T08:58:50.490Z,77.67
2019-05-12T08:59:41.457Z,75.66
2019-05-12T09:00:46.581Z,75.76
2019-05-12T09:01:43.715Z,74.27
2019-05-12T09:02:46.080Z,72.17
2019-05-12T09:03:41.208Z,71.72
2019-05-12T09:04:45.373Z,71.59
2019-05-12T09:05:41.110Z,72.07
2019-05-12T09:06:43.297Z,72.26
2019-05-12T09:07:41.003Z,73.12
2019-05-12T09:08:44.755Z,73.28
2019-05-12T09:09:40.930Z,74.42
2019-05-12T09:10:40.848Z,74.71
2019-05-12T09:11:40.797Z,75.09
2019-05-12T09:12:40.757Z,75.09
2019-05-12T09:13:43.223Z,74.52
2019-05-12T09:14:41.243Z,74.52
2019-05-12T09:15:43.751Z,73.37
2019-05-12T09:16:41.286Z,72.71
2019-05-12T09:17:49.508Z,72.45
2019-05-12T09:18:43.297Z,72.74
2019-05-12T09:19:43.654Z,72.42
2019-05-12T09:20:48.842Z,73.66
2019-05-12T09:21:40.290Z,72.99
2019-05-12T09:22:40.237Z,74.23
2019-05-12T09:23:41.395Z,75.09
2019-05-12T09:24:40.165Z,75.28
2019-05-12T09:25:45.078Z,74.96
2019-05-12T09:26:40.034Z,74.67
2019-05-12T09:27:48.021Z,73.91
2019-05-12T09:28:47.360Z,76.04
2019-05-12T09:29:39.909Z,74.71
2019-05-12T09:30:40.116Z,72.32
2019-05-12T09:31:39.790Z,70.73
2019-05-12T09:32:45.432Z,70.54
2019-05-12T09:33:39.679Z,70.36
2019-05-12T09:34:46.880Z,70.83
2019-05-12T09:35:39.575Z,70.36
2019-05-12T09:36:39.526Z,69.97
2019-05-12T09:37:40.591Z,69.97
2019-05-12T09:38:40.991Z,70.20
2019-05-12T09:39:42.492Z,71.34
2019-05-12T09:40:39.318Z,72.39
2019-05-12T09:41:48.602Z,71.72
2019-05-12T09:42:39.231Z,70.58
2019-05-12T09:43:40.173Z,70.77
2019-05-12T09:44:41.295Z,68.73
2019-05-12T09:45:40.272Z,68.63
2019-05-12T09:46:39.017Z,70.07
2019-05-12T09:47:38.972Z,70.58
2019-05-12T09:48:43.869Z,70.77
2019-05-12T09:49:39.712Z,69.24
2019-05-12T09:50:38.817Z,67.81
2019-05-12T09:51:45.700Z,67.75
2019-05-12T09:52:38.717Z,67.65
2019-05-12T09:53:42.766Z,67.55
2019-05-12T09:54:40.926Z,66.70
2019-05-12T09:55:38.587Z,68.32
2019-05-12T09:56:41.116Z,68.51
2019-05-12T09:57:40.566Z,70.56
2019-05-12T09:58:38.409Z,70.07
2019-05-12T09:59:38.361Z,71.70
2019-05-12T10:00:38.331Z,70.42
2019-05-12T10:01:39.638Z,69.47
2019-05-12T10:02:38.204Z,70.29
2019-05-12T10:03:40.044Z,70.29
2019-05-12T10:04:38.129Z,71.78
2019-05-12T10:05:41.240Z,72.74
2019-05-12T10:06:38.010Z,72.07
2019-05-12T10:07:37.976Z,71.98
2019-05-12T10:08:38.018Z,72.36
2019-05-12T10:09:37.858Z,72.68
2019-05-12T10:10:40.223Z,71.92
2019-05-12T10:11:37.755Z,69.34
2019-05-12T10:12:45.257Z,68.76
2019-05-12T10:13:37.655Z,69.91
2019-05-12T10:14:40.831Z,71.53
2019-05-12T10:15:37.576Z,68.86
2019-05-12T10:16:39.333Z,66.56
2019-05-12T10:17:37.453Z,66.56
2019-05-12T10:18:37.404Z,66.28
2019-05-12T10:19:37.350Z,66.95
2019-05-12T10:20:39.714Z,66.38
2019-05-12T10:21:37.251Z,64.40
2019-05-12T10:22:40.051Z,63.64
2019-05-12T10:23:37.148Z,66.03
2019-05-12T10:24:41.620Z,66.13
2019-05-12T10:25:37.073Z,65.74
2019-05-12T10:26:41.178Z,66.06
2019-05-12T10:27:36.963Z,69.12
2019-05-12T10:28:36.900Z,67.78
2019-05-12T10:29:36.853Z,65.93
2019-05-12T10:30:36.821Z,65.84
2019-05-12T10:31:39.343Z,67.36
2019-05-12T10:32:36.698Z,67.69
2019-05-12T10:33:36.651Z,65.74
2019-05-12T10:34:40.234Z,65.93
2019-05-12T10:35:36.574Z,67.75
2019-05-12T10:36:39.093Z,68.23
2019-05-12T10:37:36.453Z,67.81
2019-05-12T10:38:36.399Z,67.91
2019-05-12T10:39:36.437Z,69.15
2019-05-12T10:40:36.361Z,67.33
2019-05-12T10:41:36.252Z,68.48
2019-05-12T10:42:39.719Z,68.67
2019-05-12T10:43:36.149Z,68.67
2019-05-12T10:44:40.515Z,68.10
2019-05-12T10:45:36.050Z,67.52
2019-05-12T10:46:36.023Z,66.66
2019-05-12T10:47:35.949Z,66.41
2019-05-12T10:48:35.902Z,66.89
2019-05-12T10:49:35.844Z,66.70
2019-05-12T10:50:35.802Z,66.13
2019-05-12T10:51:35.773Z,66.50
2019-05-12T10:52:38.884Z,66.03
2019-05-12T10:53:35.660Z,65.64
2019-05-12T10:54:35.595Z,65.01
2019-05-12T10:55:35.555Z,63.48
2019-05-12T10:56:35.525Z,63.35
2019-05-12T10:57:35.457Z,64.50
2019-05-12T10:58:35.405Z,64.02
2019-05-12T10:59:38.922Z,66.22
2019-05-12T11:00:35.299Z,65.64
2019-05-12T11:01:38.447Z,65.93
2019-05-12T11:02:35.196Z,66.50
2019-05-12T11:03:35.145Z,66.70
2019-05-12T11:04:40.714Z,67.81
2019-05-12T11:05:35.046Z,66.76
2019-05-12T11:06:39.778Z,66.19
2019-05-12T11:07:34.948Z,65.90
2019-05-12T11:08:34.896Z,63.99
2019-05-12T11:09:34.851Z,64.50
2019-05-12T11:10:34.801Z,64.31
2019-05-12T11:11:42.165Z,65.45
2019-05-12T11:12:34.716Z,65.11
2019-05-12T11:13:34.652Z,66.35
2019-05-12T11:14:34.623Z,65.39
2019-05-12T11:15:34.680Z,65.20
2019-05-12T11:16:35.074Z,64.25
2019-05-12T11:17:34.474Z,64.62
2019-05-12T11:18:34.394Z,63.19
2019-05-12T11:19:34.348Z,62.71
2019-05-12T11:20:34.594Z,63.29
2019-05-12T11:21:34.244Z,64.43
2019-05-12T11:22:34.217Z,66.03
2019-05-12T11:23:34.572Z,66.22
2019-05-12T11:24:34.095Z,65.84
2019-05-12T11:25:34.271Z,65.84
2019-05-12T11:26:33.999Z,67.65
2019-05-12T11:27:34.561Z,68.23
2019-05-12T11:28:33.900Z,67.75
2019-05-12T11:29:45.830Z,67.84
2019-05-12T11:30:34.784Z,67.46
2019-05-12T11:31:33.791Z,67.97
2019-05-12T11:32:37.732Z,66.83
2019-05-12T11:33:34.141Z,65.20
2019-05-12T11:34:33.677Z,64.25
2019-05-12T11:35:33.546Z,63.10
2019-05-12T11:36:34.470Z,63.19
2019-05-12T11:37:33.860Z,64.91
2019-05-12T11:38:33.675Z,65.58
2019-05-12T11:39:38.782Z,64.91
2019-05-12T11:40:34.728Z,65.58
2019-05-12T11:41:33.388Z,64.82
2019-05-12T11:42:33.685Z,64.72
2019-05-12T11:43:33.768Z,64.34
2019-05-12T11:44:33.663Z,64.05
2019-05-12T11:45:33.602Z,64.91
2019-05-12T11:46:36.221Z,64.43
2019-05-12T11:47:34.622Z,63.29
2019-05-12T11:48:33.946Z,62.33
2019-05-12T11:49:33.396Z,61.76
2019-05-12T11:50:32.795Z,63.39
2019-05-12T11:51:34.089Z,62.87
2019-05-12T11:52:33.427Z,63.19
2019-05-12T11:53:34.862Z,61.57
2019-05-12T11:54:33.584Z,61.57
2019-05-12T11:55:34.710Z,61.47
2019-05-12T11:56:33.650Z,61.38
2019-05-12T11:57:34.096Z,61.47
2019-05-12T11:58:33.535Z,61.38
2019-05-12T11:59:34.178Z,62.90
2019-05-12T12:00:33.656Z,64.25
2019-05-12T12:01:34.444Z,64.34
2019-05-12T12:02:34.074Z,64.53
2019-05-12T12:03:33.637Z,65.14
2019-05-12T12:04:34.025Z,64.95
2019-05-12T12:05:33.869Z,65.04
2019-05-12T12:06:33.148Z,63.99
2019-05-12T12:07:33.301Z,63.13
2019-05-12T12:08:37.093Z,63.03
2019-05-12T12:09:31.838Z,63.42
2019-05-12T12:10:35.406Z,62.94
2019-05-12T12:11:31.735Z,63.10
2019-05-12T12:12:31.685Z,64.85
2019-05-12T12:13:33.579Z,65.01
2019-05-12T12:14:32.431Z,64.25
2019-05-12T12:15:31.533Z,65.30
2019-05-12T12:16:31.485Z,64.15
2019-05-12T12:17:35.096Z,63.76
2019-05-12T12:18:33.650Z,63.10
2019-05-12T12:19:37.819Z,64.78
2019-05-12T12:20:33.522Z,64.98
2019-05-12T12:21:34.287Z,64.59
2019-05-12T12:22:31.185Z,65.74
2019-05-12T12:23:32.934Z,65.84
2019-05-12T12:24:31.597Z,65.17
2019-05-12T12:25:31.036Z,67.43
2019-05-12T12:26:34.319Z,67.71
2019-05-12T12:27:30.935Z,66.95
2019-05-12T12:28:30.909Z,67.24
2019-05-12T12:29:30.834Z,68.00
2019-05-12T12:30:30.780Z,67.71
2019-05-12T12:31:35.556Z,68.00
2019-05-12T12:32:30.679Z,67.91
2019-05-12T12:33:31.029Z,68.48
2019-05-12T12:34:30.595Z,68.80
2019-05-12T12:35:30.526Z,68.23
2019-05-12T12:36:30.481Z,70.42
2019-05-12T12:37:30.431Z,70.81
2019-05-12T12:38:30.406Z,71.25
2019-05-12T12:39:30.330Z,72.20
2019-05-12T12:40:30.278Z,71.82
2019-05-12T12:41:30.251Z,71.86
2019-05-12T12:42:35.412Z,71.95
2019-05-12T12:43:30.146Z,70.81
2019-05-12T12:44:30.074Z,71.67
2019-05-12T12:45:30.389Z,71.61
2019-05-12T12:46:29.976Z,71.61
2019-05-12T12:47:29.918Z,68.55
2019-05-12T12:48:30.049Z,70.75
2019-05-12T12:49:29.826Z,70.07
2019-05-12T12:50:30.696Z,69.41
2019-05-12T12:51:29.726Z,69.21